首页
METAR-TAF:

METAR-TAF

机场 :

福賈, 意大利

纬度: 41-32N, 经度: 015-43E, 海拔: 57米

当前天气观测

该预报发布于55分钟前的16:55 UTC
风速8节,风向
温度 22°C
湿度 83%
气压 1014 hPa
能见度10公里或以上
少量云层高于2000英尺
少量云层高于4000英尺, 积雨云.
散云层高于5000英尺
雷暴, 小雨

METAR: LIBA 151655Z 09008KT 9999 -TSRA FEW020 FEW040CB SCT050 22/19 Q1014 RMK BKN VIS MIN 7000E WIND THR11 10011KT WIND THR29 /////KT WHT

时间: 19:50 (17:50 UTC)

预报

该预报发布于50分钟前的17:00 UTC
预报有效从15日的 18点(UTC)到 16日的 03点(UTC)
风速15节,风向
能見度: 7000
少量云层高于2000英尺, 积雨云.
散云层高于3000英尺
雷暴, 雨
成为
从 15日的 19点(UTC)到 15日的 21点(UTC)
能见度10公里或以上
少量云层高于3500英尺

TAF: LIBA 151700Z 1518/1603 09015KT 7000 TSRA FEW020CB SCT030 BECMG 1519/1521 9999 FEW035

超过4000个机场的气象观测和天气预报(METAR&TAF报告)。

可查询的气象台以黄色和红色小点在地图上表示。

将鼠标移到小点上方,可查看气象台名称。

然后点击查看天气观测和预报。

如需切换地图:点击带黑十字的绿色按钮放大地图;点击带横线的绿色按钮缩小地图;或者点击绿色箭头查看邻近地区的地图。


METAR-TAF: